Time,TemperatureF,DewpointF,PressureIn,WindDirection,WindDirectionDegrees,WindSpeedMPH,WindSpeedGustMPH,Humidity,HourlyPrecipIn,Conditions,Clouds,dailyrainin,SoftwareType,DateUTC
2013-01-13 07:42:00,17.4,9.6,30.06,East,90,2.0,2.0,71,0.00,,,0.00,VWS V14.00,2013-01-13 15:42:00,
2013-01-13 07:47:00,19.4,11.6,30.09,SSE,158,0.0,0.0,71,0.00,,,0.00,VWS V14.00,2013-01-13 15:47:00,
2013-01-13 07:52:00,19.6,11.7,30.09,SSE,158,0.0,0.0,71,0.00,,,0.00,VWS V14.00,2013-01-13 15:52:00,
2013-01-13 07:57:00,19.8,11.6,30.09,SSE,158,0.0,0.0,70,0.00,,,0.00,VWS V14.00,2013-01-13 15:57:00,
2013-01-13 08:02:00,19.9,11.8,30.09,SSE,158,0.0,0.0,70,0.00,,,0.00,VWS V14.00,2013-01-13 16:02:00,
2013-01-13 08:07:00,21.7,12.8,30.09,SE,135,1.1,1.1,68,0.00,,,0.00,VWS V14.00,2013-01-13 16:07:00,
2013-01-13 08:12:00,22.8,12.8,30.09,SE,135,0.0,0.0,65,0.00,,,0.00,VWS V14.00,2013-01-13 16:12:00,
2013-01-13 08:17:00,23.0,12.6,30.09,ESE,112,0.0,0.0,64,0.00,,,0.00,VWS V14.00,2013-01-13 16:17:00,
2013-01-13 08:22:00,23.9,12.4,30.09,ESE,112,0.0,0.0,61,0.00,,,0.00,VWS V14.00,2013-01-13 16:22:00,
2013-01-13 08:27:00,24.1,12.2,30.09,ESE,112,1.3,1.3,60,0.00,,,0.00,VWS V14.00,2013-01-13 16:27:00,
2013-01-13 08:32:00,24.1,12.2,30.09,SSE,158,0.0,0.0,60,0.00,,,0.00,VWS V14.00,2013-01-13 16:32:00,
2013-01-13 08:37:00,25.5,12.8,30.09,East,90,2.9,2.9,58,0.00,,,0.00,VWS V14.00,2013-01-13 16:37:00,
2013-01-13 08:42:00,26.2,12.7,30.09,East,90,2.5,2.5,56,0.00,,,0.00,VWS V14.00,2013-01-13 16:42:00,
2013-01-13 08:47:00,26.8,12.4,30.09,ESE,112,1.1,1.1,54,0.00,,,0.00,VWS V14.00,2013-01-13 16:47:00,
2013-01-13 08:52:00,26.8,12.4,30.09,East,90,2.5,2.5,54,0.00,,,0.00,VWS V14.00,2013-01-13 16:52:00,
2013-01-13 08:57:00,28.0,12.7,30.09,ESE,112,2.0,2.0,52,0.00,,,0.00,VWS V14.00,2013-01-13 16:57:00,
2013-01-13 09:02:00,28.2,12.9,30.09,ESE,112,0.0,1.6,52,0.00,,,0.00,VWS V14.00,2013-01-13 17:02:00,
2013-01-13 09:07:00,28.0,12.7,30.09,East,90,1.6,1.6,52,0.00,,,0.00,VWS V14.00,2013-01-13 17:07:00,
2013-01-13 09:12:00,28.9,13.1,30.09,ESE,112,4.7,4.7,51,0.00,,,0.00,VWS V14.00,2013-01-13 17:12:00,
2013-01-13 09:17:00,29.3,13.4,30.09,SE,135,0.9,0.9,51,0.00,,,0.00,VWS V14.00,2013-01-13 17:17:00,
2013-01-13 09:22:00,29.7,13.3,30.09,ESE,112,2.9,2.9,50,0.00,,,0.00,VWS V14.00,2013-01-13 17:22:00,
2013-01-13 09:27:00,29.8,13.0,30.09,SSE,158,2.5,3.1,49,0.00,,,0.00,VWS V14.00,2013-01-13 17:27:00,
2013-01-13 09:32:00,30.4,13.1,30.09,East,90,1.3,2.7,48,0.00,,,0.00,VWS V14.00,2013-01-13 17:32:00,
2013-01-13 09:37:00,30.6,12.7,30.09,SE,135,3.8,3.8,47,0.00,,,0.00,VWS V14.00,2013-01-13 17:37:00,
2013-01-13 09:42:00,31.1,12.8,30.09,East,90,1.6,1.6,46,0.00,,,0.00,VWS V14.00,2013-01-13 17:42:00,
2013-01-13 09:47:00,31.3,12.4,30.09,ENE,68,0.0,0.0,45,0.00,,,0.00,VWS V14.00,2013-01-13 17:47:00,
2013-01-13 09:52:00,31.5,12.6,30.09,East,90,1.3,1.3,45,0.00,,,0.00,VWS V14.00,2013-01-13 17:52:00,
2013-01-13 09:57:00,31.8,12.9,30.09,ESE,112,3.8,3.8,45,0.00,,,0.00,VWS V14.00,2013-01-13 17:57:00,
2013-01-13 10:02:00,32.0,13.1,30.09,East,90,2.5,3.8,45,0.00,,,0.00,VWS V14.00,2013-01-13 18:02:00,
2013-01-13 10:07:00,32.4,13.4,30.09,East,90,3.1,3.1,45,0.00,,,0.00,VWS V14.00,2013-01-13 18:07:00,
2013-01-13 10:12:00,32.5,13.1,30.09,East,90,1.1,2.2,44,0.00,,,0.00,VWS V14.00,2013-01-13 18:12:00,
2013-01-13 10:17:00,32.5,13.1,30.09,East,90,1.6,1.6,44,0.00,,,0.00,VWS V14.00,2013-01-13 18:17:00,
2013-01-13 10:22:00,32.7,13.2,30.06,ENE,68,2.5,2.5,44,0.00,,,0.00,VWS V14.00,2013-01-13 18:22:00,
2013-01-13 10:27:00,32.9,13.4,30.06,North,0,1.6,1.6,44,0.00,,,0.00,VWS V14.00,2013-01-13 18:27:00,
2013-01-13 10:33:00,33.1,13.6,30.06,East,90,1.3,1.3,44,0.00,,,0.00,VWS V14.00,2013-01-13 18:33:00,
2013-01-13 10:38:00,33.4,13.9,30.06,SE,135,1.3,1.3,44,0.00,,,0.00,VWS V14.00,2013-01-13 18:38:00,
2013-01-13 10:43:00,33.4,13.9,30.06,SSE,158,0.0,0.0,44,0.00,,,0.00,VWS V14.00,2013-01-13 18:43:00,
2013-01-13 10:48:00,33.8,13.7,30.06,NE,45,2.0,2.0,43,0.00,,,0.00,VWS V14.00,2013-01-13 18:48:00,
2013-01-13 10:53:00,34.2,14.0,30.06,East,90,2.0,2.7,43,0.00,,,0.00,VWS V14.00,2013-01-13 18:53:00,
2013-01-13 10:58:00,34.0,13.9,30.06,ESE,112,0.0,0.0,43,0.00,,,0.00,VWS V14.00,2013-01-13 18:58:00,
2013-01-13 11:03:00,34.2,14.0,30.06,SE,135,0.0,0.0,43,0.00,,,0.00,VWS V14.00,2013-01-13 19:03:00,
2013-01-13 11:08:00,34.3,14.2,30.06,SE,135,0.0,0.0,43,0.00,,,0.00,VWS V14.00,2013-01-13 19:08:00,
2013-01-13 11:13:00,34.7,14.5,30.06,SE,135,0.9,2.5,43,0.00,,,0.00,VWS V14.00,2013-01-13 19:13:00,
2013-01-13 11:18:00,34.9,14.7,30.06,East,90,0.0,2.2,43,0.00,,,0.00,VWS V14.00,2013-01-13 19:18:00,
2013-01-13 11:23:00,34.7,14.5,30.03,WSW,248,0.0,0.0,43,0.00,,,0.00,VWS V14.00,2013-01-13 19:23:00,
2013-01-13 11:28:00,35.1,14.8,30.03,NNW,338,1.6,1.6,43,0.00,,,0.00,VWS V14.00,2013-01-13 19:28:00,
2013-01-13 11:33:00,35.4,15.2,30.03,ENE,68,1.6,3.1,43,0.00,,,0.00,VWS V14.00,2013-01-13 19:33:00,
2013-01-13 11:38:00,35.8,14.9,30.03,ESE,112,0.0,3.6,42,0.00,,,0.00,VWS V14.00,2013-01-13 19:38:00,
2013-01-13 11:43:00,36.0,15.1,30.03,West,270,2.7,2.7,42,0.00,,,0.00,VWS V14.00,2013-01-13 19:43:00,
2013-01-13 11:48:00,36.1,15.3,30.03,WSW,248,2.0,2.9,42,0.00,,,0.00,VWS V14.00,2013-01-13 19:48:00,
2013-01-13 11:53:00,36.1,15.3,30.03,WSW,248,1.3,1.3,42,0.00,,,0.00,VWS V14.00,2013-01-13 19:53:00,
2013-01-13 11:58:00,36.1,15.3,30.03,WNW,292,4.0,4.0,42,0.00,,,0.00,VWS V14.00,2013-01-13 19:58:00,
2013-01-13 12:03:00,36.1,14.7,30.03,West,270,0.0,4.9,41,0.00,,,0.00,VWS V14.00,2013-01-13 20:03:00,
2013-01-13 12:08:00,35.8,14.9,30.03,West,270,7.2,7.2,42,0.00,,,0.00,VWS V14.00,2013-01-13 20:08:00,
2013-01-13 12:13:00,36.5,15.6,30.03,NW,315,3.1,3.1,42,0.00,,,0.00,VWS V14.00,2013-01-13 20:13:00,
2013-01-13 12:18:00,36.1,15.3,30.03,WSW,248,2.0,2.0,42,0.00,,,0.00,VWS V14.00,2013-01-13 20:18:00,
2013-01-13 12:23:00,36.5,15.1,30.03,NNW,338,3.4,4.3,41,0.00,,,0.00,VWS V14.00,2013-01-13 20:23:00,
2013-01-13 12:28:00,36.5,15.6,30.03,WNW,292,2.7,2.7,42,0.00,,,0.00,VWS V14.00,2013-01-13 20:28:00,
2013-01-13 12:33:00,36.7,15.2,30.03,NW,315,3.6,3.6,41,0.00,,,0.00,VWS V14.00,2013-01-13 20:33:00,
2013-01-13 12:38:00,36.7,15.2,30.03,ENE,68,2.9,5.4,41,0.00,,,0.00,VWS V14.00,2013-01-13 20:38:00,
2013-01-13 12:43:00,36.7,15.2,30.03,WSW,248,4.0,4.0,41,0.00,,,0.00,VWS V14.00,2013-01-13 20:43:00,
2013-01-13 12:48:00,36.7,15.2,30.03,ESE,112,2.0,2.0,41,0.00,,,0.00,VWS V14.00,2013-01-13 20:48:00,
2013-01-13 12:53:00,36.9,15.9,30.00,WSW,248,1.3,3.4,42,0.00,,,0.00,VWS V14.00,2013-01-13 20:53:00,
2013-01-13 12:58:00,36.5,15.1,30.00,WSW,248,2.5,2.5,41,0.00,,,0.00,VWS V14.00,2013-01-13 20:58:00,
2013-01-13 13:03:00,36.5,15.1,30.00,NE,45,4.3,4.3,41,0.00,,,0.00,VWS V14.00,2013-01-13 21:03:00,
2013-01-13 13:08:00,36.1,14.7,30.00,West,270,4.3,4.3,41,0.00,,,0.00,VWS V14.00,2013-01-13 21:08:00,
2013-01-13 13:13:00,35.4,14.6,30.00,WNW,292,3.4,3.4,42,0.00,,,0.00,VWS V14.00,2013-01-13 21:13:00,
2013-01-13 13:18:00,35.8,14.9,30.00,NW,315,1.6,1.6,42,0.00,,,0.00,VWS V14.00,2013-01-13 21:18:00,
2013-01-13 13:23:00,35.4,14.6,30.00,WNW,292,2.5,2.5,42,0.00,,,0.00,VWS V14.00,2013-01-13 21:23:00,
2013-01-13 13:28:00,36.0,15.1,30.00,West,270,2.0,2.0,42,0.00,,,0.00,VWS V14.00,2013-01-13 21:28:00,
2013-01-13 13:33:00,36.7,15.8,30.00,WSW,248,3.8,3.8,42,0.00,,,0.00,VWS V14.00,2013-01-13 21:33:00,
2013-01-13 13:38:00,36.7,15.8,30.00,SW,225,7.6,7.6,42,0.00,,,0.00,VWS V14.00,2013-01-13 21:38:00,
2013-01-13 13:43:00,37.0,16.1,30.00,West,270,3.6,3.6,42,0.00,,,0.00,VWS V14.00,2013-01-13 21:43:00,
2013-01-13 13:48:00,36.7,15.8,30.00,NNE,22,2.7,4.7,42,0.00,,,0.00,VWS V14.00,2013-01-13 21:48:00,
2013-01-13 13:53:00,36.7,15.8,30.00,NNE,22,0.0,0.0,42,0.00,,,0.00,VWS V14.00,2013-01-13 21:53:00,
2013-01-13 13:58:00,36.9,15.9,30.00,WSW,248,4.7,4.7,42,0.00,,,0.00,VWS V14.00,2013-01-13 21:58:00,
2013-01-13 14:03:00,36.7,15.8,30.00,West,270,2.0,2.0,42,0.00,,,0.00,VWS V14.00,2013-01-13 22:03:00,
2013-01-13 14:08:00,36.9,15.9,30.00,NW,315,2.7,2.7,42,0.00,,,0.00,VWS V14.00,2013-01-13 22:08:00,
2013-01-13 14:13:00,37.0,16.1,30.00,NNE,22,3.6,3.6,42,0.00,,,0.00,VWS V14.00,2013-01-13 22:13:00,
2013-01-13 14:18:00,37.4,15.9,30.00,NNW,338,2.5,2.5,41,0.00,,,0.00,VWS V14.00,2013-01-13 22:18:00,
2013-01-13 14:23:00,37.4,15.9,30.00,NW,315,0.0,2.5,41,0.00,,,0.00,VWS V14.00,2013-01-13 22:23:00,
2013-01-13 14:28:00,37.2,16.3,30.00,NNW,338,2.0,2.0,42,0.00,,,0.00,VWS V14.00,2013-01-13 22:28:00,
2013-01-13 14:33:00,36.9,15.9,30.00,SW,225,6.0,6.0,42,0.00,,,0.00,VWS V14.00,2013-01-13 22:33:00,
2013-01-13 14:38:00,36.9,15.9,30.00,WNW,292,5.6,5.6,42,0.00,,,0.00,VWS V14.00,2013-01-13 22:38:00,
2013-01-13 14:43:00,37.0,15.5,30.00,NNE,22,2.0,2.0,41,0.00,,,0.00,VWS V14.00,2013-01-13 22:43:00,
2013-01-13 14:48:00,36.9,15.9,30.00,SW,225,1.1,1.1,42,0.00,,,0.00,VWS V14.00,2013-01-13 22:48:00,
2013-01-13 14:53:00,36.7,15.8,30.00,WSW,248,2.9,4.9,42,0.00,,,0.00,VWS V14.00,2013-01-13 22:53:00,
2013-01-13 14:58:00,36.5,15.6,30.00,West,270,3.1,3.1,42,0.00,,,0.00,VWS V14.00,2013-01-13 22:58:00,
2013-01-13 15:03:00,36.0,15.1,30.00,WSW,248,4.9,4.9,42,0.00,,,0.00,VWS V14.00,2013-01-13 23:03:00,
2013-01-13 15:08:00,35.8,14.9,30.00,West,270,2.0,2.0,42,0.00,,,0.00,VWS V14.00,2013-01-13 23:08:00,
2013-01-13 15:14:00,35.4,14.6,30.00,NW,315,2.0,2.0,42,0.00,,,0.00,VWS V14.00,2013-01-13 23:14:00,
2013-01-13 15:19:00,34.9,14.1,30.00,NW,315,7.8,7.8,42,0.00,,,0.00,VWS V14.00,2013-01-13 23:19:00,
2013-01-13 15:24:00,34.7,14.0,30.00,West,270,4.9,4.9,42,0.00,,,0.00,VWS V14.00,2013-01-13 23:24:00,
2013-01-13 15:29:00,34.7,14.0,30.00,West,270,5.4,5.4,42,0.00,,,0.00,VWS V14.00,2013-01-13 23:29:00,
2013-01-13 15:34:00,34.5,14.3,30.00,WSW,248,4.9,4.9,43,0.00,,,0.00,VWS V14.00,2013-01-13 23:34:00,
2013-01-13 15:39:00,34.3,14.2,30.00,WSW,248,2.7,2.7,43,0.00,,,0.00,VWS V14.00,2013-01-13 23:39:00,
2013-01-13 15:44:00,34.5,14.3,30.00,WNW,292,1.3,1.3,43,0.00,,,0.00,VWS V14.00,2013-01-13 23:44:00,
2013-01-13 15:49:00,34.5,14.3,30.00,WNW,292,2.7,2.7,43,0.00,,,0.00,VWS V14.00,2013-01-13 23:49:00,
2013-01-13 15:54:00,34.3,14.2,30.00,West,270,2.5,4.3,43,0.00,,,0.00,VWS V14.00,2013-01-13 23:54:00,
2013-01-13 15:59:00,34.3,14.2,30.00,WSW,248,1.3,3.6,43,0.00,,,0.00,VWS V14.00,2013-01-13 23:59:00,
2013-01-13 16:04:00,34.0,15.4,30.00,WSW,248,2.9,2.9,46,0.00,,,0.00,VWS V14.00,2013-01-14 00:04:00,
2013-01-13 16:09:00,34.0,16.4,30.00,West,270,2.9,3.8,48,0.00,,,0.00,VWS V14.00,2013-01-14 00:09:00,
2013-01-13 16:14:00,33.8,16.7,30.00,SW,225,1.3,3.4,49,0.00,,,0.00,VWS V14.00,2013-01-14 00:14:00,
2013-01-13 16:19:00,33.6,17.0,30.00,WNW,292,2.7,2.7,50,0.00,,,0.00,VWS V14.00,2013-01-14 00:19:00,
2013-01-13 16:24:00,33.4,17.3,30.00,West,270,2.5,2.5,51,0.00,,,0.00,VWS V14.00,2013-01-14 00:24:00,
2013-01-13 16:29:00,33.1,16.9,30.00,SSW,202,4.3,4.3,51,0.00,,,0.00,VWS V14.00,2013-01-14 00:29:00,
2013-01-13 16:34:00,32.9,17.2,30.00,WSW,248,2.5,3.1,52,0.00,,,0.00,VWS V14.00,2013-01-14 00:34:00,
2013-01-13 16:39:00,32.7,17.0,30.00,WSW,248,4.0,4.0,52,0.00,,,0.00,VWS V14.00,2013-01-14 00:39:00,
2013-01-13 16:44:00,32.7,17.0,30.00,WSW,248,3.4,3.4,52,0.00,,,0.00,VWS V14.00,2013-01-14 00:44:00,
2013-01-13 16:49:00,32.5,17.3,30.00,West,270,0.9,2.9,53,0.00,,,0.00,VWS V14.00,2013-01-14 00:49:00,
2013-01-13 16:54:00,32.2,17.0,30.00,NW,315,3.4,4.0,53,0.00,,,0.00,VWS V14.00,2013-01-14 00:54:00,
2013-01-13 16:59:00,32.2,17.4,30.00,SW,225,2.7,5.4,54,0.00,,,0.00,VWS V14.00,2013-01-14 00:59:00,
2013-01-13 17:04:00,31.8,17.1,30.00,WSW,248,2.7,4.9,54,0.00,,,0.00,VWS V14.00,2013-01-14 01:04:00,
2013-01-13 17:09:00,31.8,17.1,30.00,West,270,2.5,2.5,54,0.00,,,0.00,VWS V14.00,2013-01-14 01:09:00,
2013-01-13 17:14:00,31.6,17.3,30.00,SW,225,2.5,2.5,55,0.00,,,0.00,VWS V14.00,2013-01-14 01:14:00,
2013-01-13 17:19:00,31.5,17.2,30.00,West,270,0.9,0.9,55,0.00,,,0.00,VWS V14.00,2013-01-14 01:19:00,
2013-01-13 17:24:00,31.5,17.2,30.00,WSW,248,1.6,1.6,55,0.00,,,0.00,VWS V14.00,2013-01-14 01:24:00,
2013-01-13 17:29:00,31.1,17.2,30.00,SW,225,3.1,3.1,56,0.00,,,0.00,VWS V14.00,2013-01-14 01:29:00,
2013-01-13 17:34:00,30.9,17.1,30.00,WSW,248,3.8,3.8,56,0.00,,,0.00,VWS V14.00,2013-01-14 01:34:00,
2013-01-13 17:39:00,30.6,16.7,30.00,WSW,248,3.4,3.4,56,0.00,,,0.00,VWS V14.00,2013-01-14 01:39:00,
2013-01-13 17:44:00,30.0,16.6,30.00,West,270,3.1,3.1,57,0.00,,,0.00,VWS V14.00,2013-01-14 01:44:00,
2013-01-13 17:49:00,29.7,16.7,30.00,SW,225,4.3,4.3,58,0.00,,,0.00,VWS V14.00,2013-01-14 01:49:00,
2013-01-13 17:54:00,29.5,16.5,30.00,SW,225,3.1,3.1,58,0.00,,,0.00,VWS V14.00,2013-01-14 01:54:00,
2013-01-13 17:59:00,29.5,16.5,30.00,WSW,248,3.4,3.4,58,0.00,,,0.00,VWS V14.00,2013-01-14 01:59:00,
2013-01-13 18:04:00,29.3,16.4,30.00,WSW,248,2.7,2.7,58,0.00,,,0.00,VWS V14.00,2013-01-14 02:04:00,
2013-01-13 18:10:00,28.9,16.4,30.00,WSW,248,3.6,3.6,59,0.00,,,0.00,VWS V14.00,2013-01-14 02:10:00,
2013-01-13 18:14:00,28.8,16.2,30.00,WSW,248,2.9,2.9,59,0.00,,,0.00,VWS V14.00,2013-01-14 02:14:00,
2013-01-13 18:19:00,28.6,16.1,30.00,SSW,202,3.8,3.8,59,0.00,,,0.00,VWS V14.00,2013-01-14 02:19:00,
2013-01-13 18:25:00,28.6,16.1,30.03,WSW,248,3.1,3.1,59,0.00,,,0.00,VWS V14.00,2013-01-14 02:25:00,
2013-01-13 18:30:00,28.6,16.1,30.03,WSW,248,2.2,2.2,59,0.00,,,0.00,VWS V14.00,2013-01-14 02:30:00,
2013-01-13 18:35:00,28.6,16.1,30.03,SW,225,2.0,2.0,59,0.00,,,0.00,VWS V14.00,2013-01-14 02:35:00,
2013-01-13 18:40:00,28.6,16.1,30.03,West,270,2.7,2.7,59,0.00,,,0.00,VWS V14.00,2013-01-14 02:40:00,
2013-01-13 18:45:00,28.6,16.5,30.03,West,270,1.3,1.3,60,0.00,,,0.00,VWS V14.00,2013-01-14 02:45:00,
2013-01-13 18:50:00,28.6,16.5,30.03,West,270,1.3,2.5,60,0.00,,,0.00,VWS V14.00,2013-01-14 02:50:00,
2013-01-13 18:55:00,28.4,16.3,30.03,WSW,248,2.5,2.5,60,0.00,,,0.00,VWS V14.00,2013-01-14 02:55:00,
2013-01-13 19:00:00,28.2,16.1,30.03,West,270,0.0,0.0,60,0.00,,,0.00,VWS V14.00,2013-01-14 03:00:00,
2013-01-13 19:05:00,28.4,16.7,30.03,WNW,292,0.0,0.0,61,0.00,,,0.00,VWS V14.00,2013-01-14 03:05:00,
2013-01-13 19:10:00,28.4,16.7,30.03,WSW,248,0.0,0.0,61,0.00,,,0.00,VWS V14.00,2013-01-14 03:10:00,
2013-01-13 19:15:00,28.8,16.6,30.03,SSE,158,0.0,0.0,60,0.00,,,0.00,VWS V14.00,2013-01-14 03:15:00,
2013-01-13 19:20:00,28.9,16.8,30.03,South,180,0.0,0.0,60,0.00,,,0.00,VWS V14.00,2013-01-14 03:20:00,
2013-01-13 19:25:00,28.8,16.6,30.03,South,180,0.0,0.0,60,0.00,,,0.00,VWS V14.00,2013-01-14 03:25:00,
2013-01-13 19:30:00,28.6,16.5,30.03,SE,135,0.0,0.0,60,0.00,,,0.00,VWS V14.00,2013-01-14 03:30:00,
2013-01-13 19:35:00,27.9,15.8,30.03,ESE,112,0.0,0.0,60,0.00,,,0.00,VWS V14.00,2013-01-14 03:35:00,
2013-01-13 19:40:00,27.3,15.3,30.03,SE,135,0.0,0.0,60,0.00,,,0.00,VWS V14.00,2013-01-14 03:40:00,
2013-01-13 19:45:00,27.1,15.1,30.03,SE,135,0.0,0.0,60,0.00,,,0.00,VWS V14.00,2013-01-14 03:45:00,
2013-01-13 19:50:00,28.2,16.1,30.03,WNW,292,0.0,0.0,60,0.00,,,0.00,VWS V14.00,2013-01-14 03:50:00,
2013-01-13 19:55:00,28.4,16.3,30.03,SE,135,0.0,0.0,60,0.00,,,0.00,VWS V14.00,2013-01-14 03:55:00,
2013-01-13 20:00:00,27.7,15.6,30.03,South,180,0.0,0.0,60,0.00,,,0.00,VWS V14.00,2013-01-14 04:00:00,
2013-01-13 20:05:00,28.0,16.0,30.03,ESE,112,0.0,0.0,60,0.00,,,0.00,VWS V14.00,2013-01-14 04:05:00,
2013-01-13 20:10:00,28.6,16.5,30.03,ESE,112,0.0,0.0,60,0.00,,,0.00,VWS V14.00,2013-01-14 04:10:00,
2013-01-13 20:15:00,27.7,15.6,30.03,ESE,112,0.0,0.0,60,0.00,,,0.00,VWS V14.00,2013-01-14 04:15:00,
2013-01-13 20:20:00,27.3,15.3,30.03,ESE,112,0.0,0.0,60,0.00,,,0.00,VWS V14.00,2013-01-14 04:20:00,
2013-01-13 20:25:00,27.0,14.9,30.03,ESE,112,0.0,0.0,60,0.00,,,0.00,VWS V14.00,2013-01-14 04:25:00,
2013-01-13 20:30:00,27.3,15.7,30.03,SSE,158,0.0,0.0,61,0.00,,,0.00,VWS V14.00,2013-01-14 04:30:00,
2013-01-13 20:35:00,26.4,14.4,30.03,SE,135,0.0,0.0,60,0.00,,,0.00,VWS V14.00,2013-01-14 04:35:00,
2013-01-13 20:40:00,26.4,14.8,30.03,ESE,112,0.0,0.0,61,0.00,,,0.00,VWS V14.00,2013-01-14 04:40:00,
2013-01-13 20:45:00,26.8,14.8,30.03,South,180,0.0,0.0,60,0.00,,,0.00,VWS V14.00,2013-01-14 04:45:00,
2013-01-13 20:50:00,26.1,14.5,30.03,SE,135,0.0,0.0,61,0.00,,,0.00,VWS V14.00,2013-01-14 04:50:00,
2013-01-13 20:55:00,26.2,15.0,30.03,SE,135,0.0,0.0,62,0.00,,,0.00,VWS V14.00,2013-01-14 04:55:00,
2013-01-13 21:00:00,26.6,15.4,30.03,SE,135,0.0,0.0,62,0.00,,,0.00,VWS V14.00,2013-01-14 05:00:00,
2013-01-13 21:01:00,26.6,15.4,30.03,SE,135,0.0,0.0,62,0.00,,,0.00,VWS V14.00,2013-01-14 05:01:00,
2013-01-13 21:02:00,26.6,15.4,30.03,SE,135,0.0,0.0,62,0.00,,,0.00,VWS V14.00,2013-01-14 05:02:00,
2013-01-13 21:07:00,26.6,15.4,30.03,SE,135,0.0,0.0,62,0.00,,,0.00,VWS V14.00,2013-01-14 05:07:00,
2013-01-13 21:12:00,27.0,15.3,30.03,SE,135,0.0,0.0,61,0.00,,,0.00,VWS V14.00,2013-01-14 05:12:00,
2013-01-13 21:17:00,27.0,15.3,30.03,ESE,112,0.0,0.0,61,0.00,,,0.00,VWS V14.00,2013-01-14 05:17:00,
2013-01-13 21:22:00,27.1,15.9,30.03,East,90,0.0,0.0,62,0.00,,,0.00,VWS V14.00,2013-01-14 05:22:00,
2013-01-13 21:27:00,27.7,16.4,30.03,SE,135,0.0,0.0,62,0.00,,,0.00,VWS V14.00,2013-01-14 05:27:00,
2013-01-13 21:32:00,27.3,15.7,30.03,South,180,0.0,0.0,61,0.00,,,0.00,VWS V14.00,2013-01-14 05:32:00,
2013-01-13 21:37:00,27.3,15.7,30.03,SSE,158,0.0,0.0,61,0.00,,,0.00,VWS V14.00,2013-01-14 05:37:00,
2013-01-13 21:42:00,27.0,15.3,30.03,ESE,112,0.0,0.0,61,0.00,,,0.00,VWS V14.00,2013-01-14 05:42:00,
2013-01-13 21:47:00,27.5,15.4,30.03,SSE,158,0.0,0.0,60,0.00,,,0.00,VWS V14.00,2013-01-14 05:47:00,
2013-01-13 21:52:00,27.9,15.0,30.03,SSE,158,0.0,0.0,58,0.00,,,0.00,VWS V14.00,2013-01-14 05:52:00,
2013-01-13 21:57:00,27.9,15.0,30.03,SSE,158,0.0,0.0,58,0.00,,,0.00,VWS V14.00,2013-01-14 05:57:00,
2013-01-13 22:02:00,27.9,14.2,30.03,East,90,0.0,0.0,56,0.00,,,0.00,VWS V14.00,2013-01-14 06:02:00,
2013-01-13 22:07:00,27.9,14.2,30.03,ESE,112,0.0,0.0,56,0.00,,,0.00,VWS V14.00,2013-01-14 06:07:00,
2013-01-13 22:12:00,27.7,14.0,30.03,ESE,112,0.0,0.0,56,0.00,,,0.00,VWS V14.00,2013-01-14 06:12:00,
2013-01-13 22:17:00,27.9,13.8,30.03,SE,135,1.1,1.1,55,0.00,,,0.00,VWS V14.00,2013-01-14 06:17:00,
2013-01-13 22:22:00,27.9,13.4,30.03,ESE,112,1.1,1.1,54,0.00,,,0.00,VWS V14.00,2013-01-14 06:22:00,
2013-01-13 22:28:00,27.7,12.8,30.03,SSE,158,0.0,0.0,53,0.00,,,0.00,VWS V14.00,2013-01-14 06:28:00,
2013-01-13 22:33:00,27.3,12.5,30.03,SSE,158,1.1,1.1,53,0.00,,,0.00,VWS V14.00,2013-01-14 06:33:00,
2013-01-13 22:38:00,27.0,12.1,30.03,West,270,0.0,0.0,53,0.00,,,0.00,VWS V14.00,2013-01-14 06:38:00,
2013-01-13 22:43:00,27.0,12.1,30.03,ENE,68,0.9,0.9,53,0.00,,,0.00,VWS V14.00,2013-01-14 06:43:00,
2013-01-13 22:48:00,26.1,11.7,30.03,SSE,158,0.0,0.0,54,0.00,,,0.00,VWS V14.00,2013-01-14 06:48:00,
2013-01-13 22:53:00,26.1,11.7,30.06,South,180,0.0,0.0,54,0.00,,,0.00,VWS V14.00,2013-01-14 06:53:00,
2013-01-13 22:58:00,26.1,11.7,30.06,SE,135,0.0,0.9,54,0.00,,,0.00,VWS V14.00,2013-01-14 06:58:00,
2013-01-13 23:03:00,25.9,11.5,30.06,ESE,112,0.0,0.0,54,0.00,,,0.00,VWS V14.00,2013-01-14 07:03:00,
2013-01-13 23:08:00,25.7,10.9,30.06,SE,135,0.0,0.0,53,0.00,,,0.00,VWS V14.00,2013-01-14 07:08:00,
2013-01-13 23:13:00,25.7,10.9,30.06,South,180,0.0,0.0,53,0.00,,,0.00,VWS V14.00,2013-01-14 07:13:00,
2013-01-13 23:18:00,25.9,11.1,30.06,East,90,1.6,1.6,53,0.00,,,0.00,VWS V14.00,2013-01-14 07:18:00,
2013-01-13 23:23:00,25.7,10.9,30.06,ESE,112,0.0,0.0,53,0.00,,,0.00,VWS V14.00,2013-01-14 07:23:00,
2013-01-13 23:28:00,25.0,10.3,30.06,SSE,158,0.0,0.0,53,0.00,,,0.00,VWS V14.00,2013-01-14 07:28:00,
2013-01-13 23:33:00,24.4,10.2,30.06,SE,135,0.9,0.9,54,0.00,,,0.00,VWS V14.00,2013-01-14 07:33:00,
2013-01-13 23:38:00,24.4,10.2,30.06,SE,135,0.0,0.0,54,0.00,,,0.00,VWS V14.00,2013-01-14 07:38:00,
2013-01-13 23:43:00,23.7,9.5,30.06,SSE,158,0.0,0.0,54,0.00,,,0.00,VWS V14.00,2013-01-14 07:43:00,
2013-01-13 23:48:00,23.5,9.4,30.06,WNW,292,2.7,2.7,54,0.00,,,0.00,VWS V14.00,2013-01-14 07:48:00,
2013-01-13 23:53:00,24.1,9.9,30.06,SSW,202,1.1,1.1,54,0.00,,,0.00,VWS V14.00,2013-01-14 07:53:00,
2013-01-13 23:58:00,23.4,9.2,30.06,ESE,112,0.0,0.0,54,0.00,,,0.00,VWS V14.00,2013-01-14 07:58:00,